createdAt,value
2022-08-17T00:00:43.125Z,21.01
2022-08-17T00:03:17.317Z,21.00
2022-08-17T00:05:51.245Z,20.98
2022-08-17T00:08:25.929Z,20.99
2022-08-17T00:10:55.011Z,20.95
2022-08-17T00:13:31.060Z,20.87
2022-08-17T00:16:09.029Z,20.87
2022-08-17T00:19:01.157Z,20.89
2022-08-17T00:21:25.611Z,20.80
2022-08-17T00:23:54.918Z,20.79
2022-08-17T00:26:34.485Z,20.75
2022-08-17T00:29:19.541Z,20.74
2022-08-17T00:31:49.510Z,20.70
2022-08-17T00:34:18.084Z,20.68
2022-08-17T00:36:46.013Z,20.63
2022-08-17T00:39:13.783Z,20.67
2022-08-17T00:41:42.563Z,20.72
2022-08-17T00:44:12.158Z,20.66
2022-08-17T00:46:43.122Z,20.54
2022-08-17T00:49:13.103Z,20.47
2022-08-17T00:51:55.034Z,20.42
2022-08-17T00:54:28.537Z,20.40
2022-08-17T00:57:12.762Z,20.49
2022-08-17T01:00:00.591Z,20.58
2022-08-17T01:02:42.647Z,20.60
2022-08-17T01:05:27.119Z,20.52
2022-08-17T01:07:58.812Z,20.52
2022-08-17T01:10:59.259Z,20.54
2022-08-17T01:13:42.242Z,20.32
2022-08-17T01:16:21.700Z,20.10
2022-08-17T01:18:53.596Z,20.10
2022-08-17T01:21:46.537Z,20.21
2022-08-17T01:24:15.310Z,20.27
2022-08-17T01:26:45.198Z,20.27
2022-08-17T01:29:13.257Z,20.26
2022-08-17T01:31:49.286Z,20.25
2022-08-17T01:34:18.843Z,20.26
2022-08-17T01:36:49.502Z,20.25
2022-08-17T01:39:39.040Z,20.22
2022-08-17T01:42:51.507Z,20.08
2022-08-17T01:45:33.815Z,19.88
2022-08-17T01:48:01.604Z,19.95
2022-08-17T01:50:35.077Z,20.01
2022-08-17T01:53:12.982Z,20.04
2022-08-17T01:56:05.577Z,20.07
2022-08-17T01:58:36.482Z,20.06
2022-08-17T02:01:06.485Z,20.04
2022-08-17T02:03:36.994Z,20.03
2022-08-17T02:06:27.239Z,19.90
2022-08-17T02:09:02.464Z,19.69
2022-08-17T02:11:34.788Z,19.75
2022-08-17T02:14:05.112Z,19.82
2022-08-17T02:16:37.677Z,19.86
2022-08-17T02:19:13.648Z,19.86
2022-08-17T02:21:44.965Z,19.84
2022-08-17T02:24:59.410Z,19.66
2022-08-17T02:27:12.742Z,19.45
2022-08-17T02:29:40.576Z,19.41
2022-08-17T02:32:27.372Z,19.47
2022-08-17T02:34:59.974Z,19.55
2022-08-17T02:37:29.908Z,19.62
2022-08-17T02:39:59.403Z,19.64
2022-08-17T02:42:34.109Z,19.45
2022-08-17T02:45:06.159Z,19.24
2022-08-17T02:47:34.278Z,19.25
2022-08-17T02:50:02.382Z,19.36
2022-08-17T02:52:42.814Z,19.34
2022-08-17T02:55:22.804Z,19.31
2022-08-17T02:57:52.523Z,19.26
2022-08-17T03:00:26.923Z,19.17
2022-08-17T03:02:56.783Z,19.23
2022-08-17T03:05:28.827Z,19.27
2022-08-17T03:07:57.030Z,19.31
2022-08-17T03:10:25.629Z,19.31
2022-08-17T03:12:54.368Z,19.39
2022-08-17T03:15:27.650Z,19.42
2022-08-17T03:17:57.391Z,19.43
2022-08-17T03:20:27.749Z,19.44
2022-08-17T03:23:02.765Z,19.43
2022-08-17T03:25:39.239Z,19.46
2022-08-17T03:28:07.732Z,19.46
2022-08-17T03:30:36.790Z,19.44
2022-08-17T03:33:10.010Z,19.24
2022-08-17T03:35:40.540Z,19.08
2022-08-17T03:38:11.095Z,19.05
2022-08-17T03:40:56.487Z,19.03
2022-08-17T03:43:33.010Z,18.99
2022-08-17T03:46:34.126Z,19.00
2022-08-17T03:49:25.418Z,18.98
2022-08-17T03:52:14.934Z,18.92
2022-08-17T03:55:04.026Z,18.93
2022-08-17T03:57:32.319Z,18.97
2022-08-17T04:00:00.077Z,19.04
2022-08-17T04:02:34.063Z,19.07
2022-08-17T04:05:01.987Z,19.07
2022-08-17T04:07:31.575Z,19.06
2022-08-17T04:10:00.402Z,19.02
2022-08-17T04:12:31.067Z,19.02
2022-08-17T04:14:59.700Z,19.06
2022-08-17T04:17:29.422Z,19.16
2022-08-17T04:19:57.844Z,19.27
2022-08-17T04:22:33.070Z,19.35
2022-08-17T04:25:22.139Z,19.37
2022-08-17T04:27:50.088Z,19.36
2022-08-17T04:30:17.835Z,19.40
2022-08-17T04:33:05.792Z,19.47
2022-08-17T04:35:59.843Z,19.60
2022-08-17T04:38:35.947Z,19.70
2022-08-17T04:41:23.943Z,19.74
2022-08-17T04:43:56.174Z,19.76
2022-08-17T04:46:28.851Z,19.78
2022-08-17T04:48:57.771Z,19.82
2022-08-17T04:51:33.091Z,19.89
2022-08-17T04:54:12.457Z,19.94
2022-08-17T04:56:40.730Z,19.97
2022-08-17T04:59:17.179Z,20.03
2022-08-17T05:01:48.924Z,20.13
2022-08-17T05:04:34.263Z,20.24
2022-08-17T05:07:04.502Z,20.33
2022-08-17T05:09:32.586Z,20.40
2022-08-17T05:12:02.363Z,20.47
2022-08-17T05:14:32.323Z,20.57
2022-08-17T05:17:07.081Z,20.64
2022-08-17T05:19:38.950Z,20.69
2022-08-17T05:22:06.919Z,20.75
2022-08-17T05:24:39.173Z,20.79
2022-08-17T05:27:22.739Z,20.87
2022-08-17T05:29:51.370Z,20.94
2022-08-17T05:32:38.880Z,21.00
2022-08-17T05:35:08.954Z,21.08
2022-08-17T05:37:36.778Z,21.16
2022-08-17T05:40:05.952Z,21.24
2022-08-17T05:42:33.764Z,21.31
2022-08-17T05:45:01.635Z,21.33
2022-08-17T05:47:30.374Z,21.41
2022-08-17T05:49:59.447Z,21.52
2022-08-17T05:52:50.292Z,21.61
2022-08-17T05:55:35.657Z,21.69
2022-08-17T05:58:31.202Z,21.78
2022-08-17T06:01:35.420Z,21.87
2022-08-17T06:04:37.460Z,22.00
2022-08-17T06:07:21.103Z,22.11
2022-08-17T06:10:24.754Z,22.19
2022-08-17T06:13:38.827Z,22.29
2022-08-17T06:16:33.776Z,22.40
2022-08-17T06:19:25.041Z,22.52
2022-08-17T06:21:55.044Z,22.65
2022-08-17T06:24:54.108Z,22.76
2022-08-17T06:27:41.344Z,22.96
2022-08-17T06:30:20.360Z,23.18
2022-08-17T06:32:51.535Z,23.31
2022-08-17T06:35:40.187Z,23.43
2022-08-17T06:38:37.157Z,23.47
2022-08-17T06:41:44.706Z,23.55
2022-08-17T06:44:42.189Z,23.67
2022-08-17T06:47:44.801Z,23.91
2022-08-17T06:50:30.102Z,24.10
2022-08-17T06:53:23.040Z,24.23
2022-08-17T06:56:04.574Z,24.36
2022-08-17T06:58:35.732Z,24.46
2022-08-17T07:01:16.153Z,24.49
2022-08-17T07:04:28.135Z,24.55
2022-08-17T07:07:29.224Z,24.75
2022-08-17T07:10:00.758Z,24.80
2022-08-17T07:12:38.437Z,24.82
2022-08-17T07:15:16.533Z,24.88
2022-08-17T07:17:48.400Z,24.94
2022-08-17T07:20:22.373Z,25.15
2022-08-17T07:23:04.383Z,25.23
2022-08-17T07:25:33.029Z,25.22
2022-08-17T07:28:07.075Z,25.23
2022-08-17T07:30:50.231Z,25.28
2022-08-17T07:33:24.594Z,25.41
2022-08-17T07:35:53.629Z,25.49
2022-08-17T07:38:27.699Z,25.57
2022-08-17T07:41:01.945Z,25.70
2022-08-17T07:43:41.785Z,25.78
2022-08-17T07:46:38.327Z,25.90
2022-08-17T07:49:09.053Z,25.96
2022-08-17T07:51:43.844Z,26.21
2022-08-17T07:54:38.282Z,26.37
2022-08-17T07:57:14.998Z,26.53
2022-08-17T08:00:13.482Z,26.47
2022-08-17T08:02:58.928Z,26.46
2022-08-17T08:05:49.205Z,26.57
2022-08-17T08:08:27.983Z,26.67
2022-08-17T08:11:10.851Z,26.82
2022-08-17T08:13:43.611Z,26.96
2022-08-17T08:16:17.490Z,27.12
2022-08-17T08:18:54.020Z,27.21
2022-08-17T08:22:00.154Z,27.34
2022-08-17T08:24:51.600Z,27.50
2022-08-17T08:27:42.985Z,27.45
2022-08-17T08:30:21.546Z,27.57
2022-08-17T08:33:28.858Z,27.70
2022-08-17T08:37:02.058Z,27.76
2022-08-17T08:40:08.371Z,27.88
2022-08-17T08:43:07.152Z,27.88
2022-08-17T08:45:53.237Z,27.96
2022-08-17T08:49:12.265Z,28.12
2022-08-17T08:52:01.831Z,28.16
2022-08-17T08:54:52.238Z,28.27
2022-08-17T08:57:40.378Z,28.36
2022-08-17T09:00:15.902Z,28.72
2022-08-17T09:03:53.120Z,28.80
2022-08-17T09:06:38.817Z,28.85
2022-08-17T09:09:42.422Z,28.88
2022-08-17T09:12:31.860Z,29.08
2022-08-17T09:15:27.461Z,29.00
2022-08-17T09:19:01.263Z,29.25
2022-08-17T09:21:18.803Z,29.33
2022-08-17T09:24:02.311Z,29.27
2022-08-17T09:26:44.311Z,29.19
2022-08-17T09:29:17.882Z,29.32
2022-08-17T09:31:59.622Z,29.46
2022-08-17T09:34:48.387Z,29.69
2022-08-17T09:37:33.706Z,29.78
2022-08-17T09:40:15.942Z,29.87
2022-08-17T09:43:20.448Z,30.19
2022-08-17T09:45:54.266Z,30.20
2022-08-17T09:48:50.245Z,30.29
2022-08-17T09:51:35.996Z,30.27
2022-08-17T09:54:36.995Z,30.32
2022-08-17T09:57:29.263Z,30.37
2022-08-17T10:00:25.159Z,30.46
2022-08-17T10:03:30.454Z,30.73
2022-08-17T10:06:22.486Z,30.84
2022-08-17T10:09:18.433Z,31.07
2022-08-17T10:12:23.056Z,31.16
2022-08-17T10:15:17.333Z,30.73
2022-08-17T10:18:24.493Z,30.56
2022-08-17T10:21:24.882Z,30.45
2022-08-17T10:24:24.359Z,30.34
2022-08-17T10:26:56.372Z,30.27
2022-08-17T10:29:46.323Z,30.13
2022-08-17T10:32:33.119Z,29.88
2022-08-17T10:35:30.596Z,29.74
2022-08-17T10:38:37.026Z,29.63
2022-08-17T10:41:30.816Z,30.15
2022-08-17T10:44:38.144Z,30.49
2022-08-17T10:47:15.322Z,30.92
2022-08-17T10:49:54.167Z,30.95
2022-08-17T10:52:22.721Z,30.90
2022-08-17T10:54:57.918Z,30.94
2022-08-17T10:57:26.611Z,31.34
2022-08-17T10:59:57.232Z,31.76
2022-08-17T11:02:45.680Z,31.73
2022-08-17T11:05:43.536Z,31.75
2022-08-17T11:08:37.747Z,31.11
2022-08-17T11:11:27.247Z,30.82
2022-08-17T11:14:25.658Z,30.59
2022-08-17T11:17:29.981Z,30.50
2022-08-17T11:21:00.455Z,30.65
2022-08-17T11:24:11.998Z,30.61
2022-08-17T11:26:46.902Z,30.44
2022-08-17T11:29:29.883Z,30.44
2022-08-17T11:32:27.183Z,30.73
2022-08-17T11:35:23.155Z,31.44
2022-08-17T11:38:16.205Z,31.71
2022-08-17T11:41:18.523Z,31.80
2022-08-17T11:44:15.318Z,32.28
2022-08-17T11:47:29.426Z,32.83
2022-08-17T11:50:41.518Z,33.09
2022-08-17T11:53:38.608Z,32.96
2022-08-17T11:56:11.956Z,32.65
2022-08-17T11:58:43.512Z,32.56
2022-08-17T12:01:24.466Z,32.37
2022-08-17T12:04:16.303Z,31.92
2022-08-17T12:06:52.205Z,31.59
2022-08-17T12:09:26.374Z,31.43
2022-08-17T12:12:14.359Z,31.34
2022-08-17T12:15:12.914Z,31.22
2022-08-17T12:17:42.868Z,31.68
2022-08-17T12:20:23.365Z,32.10
2022-08-17T12:23:13.950Z,33.39
2022-08-17T12:26:22.706Z,33.37
2022-08-17T12:28:58.815Z,33.13
2022-08-17T12:31:44.254Z,33.32
2022-08-17T12:34:34.953Z,33.30
2022-08-17T12:37:19.998Z,33.28
2022-08-17T12:40:06.614Z,32.97
2022-08-17T12:42:39.319Z,33.01
2022-08-17T12:45:23.359Z,32.24
2022-08-17T12:48:04.040Z,31.24
2022-08-17T12:50:32.580Z,30.96
2022-08-17T12:53:02.519Z,31.11
2022-08-17T12:55:36.864Z,31.02
2022-08-17T12:58:10.939Z,30.92
2022-08-17T13:00:50.730Z,30.75
2022-08-17T13:03:24.363Z,30.84
2022-08-17T13:05:52.074Z,31.06
2022-08-17T13:08:26.938Z,31.43
2022-08-17T13:11:10.035Z,32.08
2022-08-17T13:13:50.630Z,31.80
2022-08-17T13:16:24.395Z,31.44
2022-08-17T13:19:40.096Z,31.27
2022-08-17T13:22:15.389Z,31.14
2022-08-17T13:25:16.359Z,31.23
2022-08-17T13:27:46.824Z,31.31
2022-08-17T13:30:23.995Z,31.36
2022-08-17T13:32:53.800Z,31.98
2022-08-17T13:35:47.130Z,32.58
2022-08-17T13:38:47.125Z,32.46
2022-08-17T13:41:37.278Z,32.06
2022-08-17T13:44:40.468Z,31.83
2022-08-17T13:47:20.395Z,31.67
2022-08-17T13:49:49.574Z,31.75
2022-08-17T13:52:39.844Z,32.22
2022-08-17T13:55:20.062Z,32.65
2022-08-17T13:58:00.936Z,32.88
2022-08-17T14:00:36.355Z,33.01
2022-08-17T14:03:05.635Z,32.71
2022-08-17T14:05:33.952Z,32.88
2022-08-17T14:08:06.402Z,33.26
2022-08-17T14:10:36.428Z,33.46
2022-08-17T14:13:07.261Z,33.78
2022-08-17T14:15:54.760Z,33.93
2022-08-17T14:18:34.266Z,34.11
2022-08-17T14:21:10.896Z,34.43
2022-08-17T14:23:38.771Z,34.42
2022-08-17T14:26:06.779Z,34.02
2022-08-17T14:28:36.417Z,33.45
2022-08-17T14:31:08.280Z,33.30
2022-08-17T14:33:37.600Z,33.09
2022-08-17T14:36:05.523Z,33.17
2022-08-17T14:38:37.927Z,33.34
2022-08-17T14:41:05.968Z,32.86
2022-08-17T14:43:35.275Z,32.58
2022-08-17T14:46:03.214Z,32.71
2022-08-17T14:48:38.307Z,32.42
2022-08-17T14:51:06.941Z,32.32
2022-08-17T14:53:34.974Z,32.12
2022-08-17T14:56:03.492Z,31.96
2022-08-17T14:58:31.282Z,31.81
2022-08-17T15:00:59.107Z,31.73
2022-08-17T15:03:26.950Z,31.69
2022-08-17T15:05:55.313Z,31.61
2022-08-17T15:08:23.100Z,31.58
2022-08-17T15:10:52.552Z,31.58
2022-08-17T15:13:26.459Z,31.62
2022-08-17T15:15:54.364Z,31.46
2022-08-17T15:18:22.423Z,31.35
2022-08-17T15:20:50.541Z,31.31
2022-08-17T15:23:21.395Z,31.43
2022-08-17T15:25:52.514Z,31.40
2022-08-17T15:28:22.947Z,31.25
2022-08-17T15:30:53.251Z,31.18
2022-08-17T15:33:30.147Z,31.24
2022-08-17T15:36:06.498Z,31.18
2022-08-17T15:38:39.224Z,31.30
2022-08-17T15:41:14.936Z,31.34
2022-08-17T15:43:45.038Z,31.34
2022-08-17T15:46:23.232Z,31.26
2022-08-17T15:48:56.519Z,31.28
2022-08-17T15:51:28.313Z,31.23
2022-08-17T15:54:00.233Z,31.23
2022-08-17T15:56:32.696Z,31.09
2022-08-17T15:59:01.118Z,31.02
2022-08-17T16:03:05.657Z,30.96
2022-08-17T16:04:29.747Z,30.80
2022-08-17T16:07:00.020Z,30.74
2022-08-17T16:09:27.973Z,30.61
2022-08-17T16:11:56.416Z,30.49
2022-08-17T16:14:33.855Z,30.35
2022-08-17T16:17:05.413Z,30.06
2022-08-17T16:19:53.187Z,29.90
2022-08-17T16:22:50.788Z,29.81
2022-08-17T16:25:38.881Z,29.70
2022-08-17T16:28:15.277Z,29.66
2022-08-17T16:30:43.618Z,29.75
2022-08-17T16:33:12.584Z,29.61
2022-08-17T16:35:41.975Z,29.51
2022-08-17T16:38:10.923Z,29.40
2022-08-17T16:40:38.781Z,29.30
2022-08-17T16:43:12.045Z,29.25
2022-08-17T16:45:40.798Z,29.17
2022-08-17T16:48:09.944Z,29.12
2022-08-17T16:50:37.893Z,29.10
2022-08-17T16:53:16.497Z,29.09
2022-08-17T16:55:46.716Z,29.05
2022-08-17T16:58:15.500Z,28.99
2022-08-17T17:00:45.123Z,28.99
2022-08-17T17:03:26.027Z,29.13
2022-08-17T17:06:22.353Z,29.29
2022-08-17T17:09:14.007Z,29.28
2022-08-17T17:11:47.956Z,29.30
2022-08-17T17:14:22.783Z,29.38
2022-08-17T17:17:04.438Z,29.34
2022-08-17T17:20:02.779Z,29.16
2022-08-17T17:22:48.022Z,29.15
2022-08-17T17:25:32.971Z,29.29
2022-08-17T17:28:24.717Z,29.12
2022-08-17T17:31:13.898Z,29.06
2022-08-17T17:33:50.341Z,29.02
2022-08-17T17:36:38.104Z,28.98
2022-08-17T17:39:43.719Z,28.92
2022-08-17T17:42:24.615Z,28.88
2022-08-17T17:45:22.079Z,28.81
2022-08-17T17:47:50.282Z,28.74
2022-08-17T17:50:29.316Z,28.68
2022-08-17T17:53:14.960Z,28.62
2022-08-17T17:56:21.067Z,28.57
2022-08-17T17:59:06.537Z,28.52
2022-08-17T18:01:46.709Z,28.46
2022-08-17T18:04:31.158Z,28.50
2022-08-17T18:07:11.157Z,28.48
2022-08-17T18:10:19.797Z,28.44
2022-08-17T18:13:30.419Z,28.39
2022-08-17T18:16:01.065Z,28.35
2022-08-17T18:18:40.760Z,28.34
2022-08-17T18:21:16.395Z,28.40
2022-08-17T18:23:56.822Z,28.46
2022-08-17T18:26:39.394Z,28.46
2022-08-17T18:29:34.272Z,28.41
2022-08-17T18:32:31.350Z,28.34
2022-08-17T18:35:11.161Z,28.25
2022-08-17T18:37:47.831Z,28.20
2022-08-17T18:40:19.373Z,28.12
2022-08-17T18:42:50.076Z,28.04
2022-08-17T18:45:45.668Z,27.98
2022-08-17T18:48:29.078Z,27.92
2022-08-17T18:51:42.317Z,27.89
2022-08-17T18:54:24.258Z,27.81
2022-08-17T18:56:59.339Z,27.74
2022-08-17T18:59:41.125Z,27.64
2022-08-17T19:02:22.078Z,27.54
2022-08-17T19:05:07.943Z,27.43
2022-08-17T19:07:48.073Z,27.32
2022-08-17T19:10:46.114Z,27.25
2022-08-17T19:13:25.688Z,27.21
2022-08-17T19:16:14.458Z,27.13
2022-08-17T19:19:26.680Z,27.04
2022-08-17T19:21:59.041Z,26.95
2022-08-17T19:24:30.322Z,26.90
2022-08-17T19:27:21.685Z,26.85
2022-08-17T19:30:02.775Z,26.78
2022-08-17T19:32:36.129Z,26.72
2022-08-17T19:35:07.562Z,26.65
2022-08-17T19:38:04.610Z,26.58
2022-08-17T19:41:11.786Z,26.48
2022-08-17T19:43:59.778Z,26.44
2022-08-17T19:47:01.490Z,26.36
2022-08-17T19:49:58.751Z,26.27
2022-08-17T19:53:12.359Z,26.19
2022-08-17T19:56:36.898Z,26.12
2022-08-17T19:59:15.661Z,26.05
2022-08-17T20:02:20.195Z,25.99
2022-08-17T20:04:52.499Z,25.92
2022-08-17T20:07:29.032Z,25.87
2022-08-17T20:10:13.580Z,25.79
2022-08-17T20:12:44.096Z,25.75
2022-08-17T20:15:28.502Z,25.76
2022-08-17T20:18:05.893Z,25.75
2022-08-17T20:20:54.932Z,25.68
2022-08-17T20:23:48.760Z,25.71
2022-08-17T20:26:58.962Z,25.68
2022-08-17T20:29:54.967Z,25.54
2022-08-17T20:32:30.923Z,25.60
2022-08-17T20:35:19.723Z,25.46
2022-08-17T20:38:32.731Z,25.39
2022-08-17T20:41:01.087Z,25.40
2022-08-17T20:43:48.890Z,25.42
2022-08-17T20:46:38.351Z,25.40
2022-08-17T20:49:08.820Z,25.36
2022-08-17T20:52:00.633Z,25.39
2022-08-17T20:54:48.795Z,25.37
2022-08-17T20:57:32.004Z,25.36
2022-08-17T21:00:41.428Z,25.41
2022-08-17T21:03:24.185Z,25.45
2022-08-17T21:06:17.130Z,25.48
2022-08-17T21:09:29.904Z,25.38
2022-08-17T21:12:04.967Z,25.46
2022-08-17T21:14:59.947Z,25.47
2022-08-17T21:17:49.682Z,25.40
2022-08-17T21:20:39.552Z,25.33
2022-08-17T21:23:24.520Z,25.24
2022-08-17T21:26:29.682Z,25.17
2022-08-17T21:29:31.066Z,25.11
2022-08-17T21:32:03.333Z,25.09
2022-08-17T21:34:38.912Z,25.08
2022-08-17T21:37:18.794Z,25.06
2022-08-17T21:40:09.722Z,25.04
2022-08-17T21:42:47.726Z,24.98
2022-08-17T21:45:38.012Z,24.97
2022-08-17T21:48:21.185Z,24.94
2022-08-17T21:51:19.708Z,24.88
2022-08-17T21:53:55.802Z,24.87
2022-08-17T21:56:36.352Z,24.79
2022-08-17T21:59:27.327Z,24.74
2022-08-17T22:02:02.627Z,24.65
2022-08-17T22:04:40.341Z,24.59
2022-08-17T22:07:13.159Z,24.59
2022-08-17T22:09:47.099Z,24.60
2022-08-17T22:12:24.278Z,24.63
2022-08-17T22:15:07.359Z,24.63
2022-08-17T22:17:44.986Z,24.53
2022-08-17T22:20:19.981Z,24.45
2022-08-17T22:23:12.559Z,24.40
2022-08-17T22:26:00.150Z,24.28
2022-08-17T22:28:52.338Z,24.21
2022-08-17T22:31:27.129Z,24.23
2022-08-17T22:33:57.812Z,24.20
2022-08-17T22:36:31.050Z,24.12
2022-08-17T22:39:26.339Z,24.06
2022-08-17T22:42:00.633Z,24.06
2022-08-17T22:44:44.828Z,24.07
2022-08-17T22:47:16.351Z,24.08
2022-08-17T22:49:58.302Z,24.06
2022-08-17T22:52:34.395Z,24.04
2022-08-17T22:55:32.838Z,23.97
2022-08-17T22:58:20.515Z,23.93
2022-08-17T23:00:49.563Z,23.86
2022-08-17T23:03:25.070Z,23.85
2022-08-17T23:06:08.189Z,23.82
2022-08-17T23:08:54.798Z,23.80
2022-08-17T23:11:36.556Z,23.74
2022-08-17T23:14:18.375Z,23.71
2022-08-17T23:16:50.934Z,23.72
2022-08-17T23:19:21.195Z,23.70
2022-08-17T23:21:55.274Z,23.67
2022-08-17T23:24:29.091Z,23.56
2022-08-17T23:26:58.035Z,23.61
2022-08-17T23:29:29.330Z,23.71
2022-08-17T23:31:59.846Z,23.71
2022-08-17T23:34:28.555Z,23.66
2022-08-17T23:36:56.543Z,23.54
2022-08-17T23:39:28.016Z,23.57
2022-08-17T23:41:59.175Z,23.67
2022-08-17T23:44:28.797Z,23.62
2022-08-17T23:46:57.087Z,23.64
2022-08-17T23:49:25.325Z,23.63
2022-08-17T23:51:56.525Z,23.60
2022-08-17T23:54:43.825Z,23.56
2022-08-17T23:57:16.859Z,23.47
2022-08-17T23:59:45.307Z,23.34
